Snel-info
Kleurcode:
Groen
Er mag gevlogen worden.
Laatste update: 14/12/2018
Kleurcode informatie

Grasmaaien:

Geen maaibeurten gepland.

Volgende vliegdagen:

  • di 25 december : Kerstmis
  • wo 26 december : 2e Kerstdag
  • di 1 januari : Nieuwjaar
Alle extra vliegdagen

Weersituatie op PMF:

Jets over Pampa (164).JPG

Huidige weersituatie

Huidig weerbeeld in Kleine Brogel, Belgium
Huidige wind in Kleine Brogel, Belgium

Dit is het bericht voor Kleine Brogel, Belgium en werd 11 minuten geleden gemaakt.
De wind waaide met een snelheid van 1.5 meter per seconde (5.6 km/h) uit het zuidoosten (130°).
De temperatuur was -1 °C. De gevoelstemperatuur was -3 °C. De atmosferische druk was 1011 hPa. De relative luchtvochtigheid was 100.0%. Het algemene zicht was 750 meter. Momenteel matige sneeuw.

De onbewerkte METAR gegevens waarop dit bericht is gebaseerd zijn:
EBBL 160144Z AUTO 13003KT 0750 SN FEW005/// OVC014/// M01/M01 Q1011 RED


Opmerking:
De wind blijkt op PMF meestal iets krachtiger te waaien dan op Kleine Brogel. De windrichting klopt dan weer wel.




KMI

De weersvoorspellingen van het KMI vind je via deze link.


Buienradar

Op www.buienradar.nl kun je zelf zien waar het nu en de komende uren regent.